aviador You're here:

OMSJ Decoded Metar

SHARJAH in UNITED ARAB EMIRATES
Report Time2017-09-21 19:00:00
UTC Time2017-09-21 19:30:08
Flight Rules vfr VFR
Wind130° at 07 kt
W.Decomp.*RWY 12: 6.9 kt HW 1.1 kt RCW
W.Rank130° ranks 2
Current wind is above 130° avg. (4.5)
Visibility9999 m
Phenomena:N/A
Clouds:N/A
Expected CloudBase > 14,400 ft AGL from Temp-Dew spread
CeilingNone
Temp31°C (ISA +16)
Dew Point-5°C (9% RH)
Heat Index29.0°C
AAT25.8°C
QNH1003 hPa
Density Alt2,362 ft
Elevation108 ft
Report Wrong Elevation
Raw Report
METAR OMSJ 211900Z 13007KT CAVOK 31/M05 Q1003=

Extra information for OMSJ:More info

Metar Taf Metar & Taf Last 4 Metars F.Rules Stats Wind Profile Meteogram Temp Stats Airport Information Weather charts Add Link Nearby VenuesMetar ALERT Operation Metar Decoded Social comments